Time;durP1;ratioP1;P1;durP2;ratioP2;P2;SDS_P1;SDS_P2;PMS_P1;PMS_P2;Temp;Humidity;BMP_temperature;BMP_pressure;BME280_temperature;BME280_humidity;BME280_pressure;Samples;Min_cycle;Max_cycle;Signal;HPM_P1;HPM_P2
2023/03/15 00:02:26;;;;;;;6.47;3.10;;;24.30;99.90;;;;;;5105466;28;20214;-75
2023/03/15 00:04:57;;;;;;;7.63;3.20;;;24.40;99.90;;;;;;5103329;28;20206;-76
2023/03/15 00:07:28;;;;;;;7.05;3.20;;;24.40;99.90;;;;;;5105898;28;20573;-76
2023/03/15 00:09:59;;;;;;;8.38;3.45;;;24.50;99.90;;;;;;5109697;28;20190;-76
2023/03/15 00:12:31;;;;;;;9.23;3.70;;;24.50;99.90;;;;;;5107565;28;20657;-75
2023/03/15 00:15:04;;;;;;;8.55;3.53;;;24.60;99.90;;;;;;5106856;28;20666;-76
2023/03/15 00:17:35;;;;;;;8.45;3.40;;;24.60;99.90;;;;;;5099836;28;20552;-75
2023/03/15 00:20:07;;;;;;;8.43;3.38;;;24.60;99.90;;;;;;5071068;28;20694;-78
2023/03/15 00:22:38;;;;;;;9.43;4.05;;;24.70;99.90;;;;;;5071906;28;20217;-77
2023/03/15 00:25:10;;;;;;;10.32;3.88;;;24.70;99.90;;;;;;5071096;28;20752;-76
2023/03/15 00:27:41;;;;;;;7.75;3.97;;;24.70;99.90;;;;;;5069901;28;20198;-76
2023/03/15 00:30:15;;;;;;;10.65;4.43;;;24.80;99.90;;;;;;5070071;28;20207;-76
2023/03/15 00:32:46;;;;;;;7.60;3.95;;;24.80;99.90;;;;;;5069786;28;20198;-76
2023/03/15 00:35:17;;;;;;;10.48;4.85;;;24.80;99.90;;;;;;5082093;28;20205;-77
2023/03/15 00:37:49;;;;;;;8.95;4.72;;;24.90;99.90;;;;;;5071311;28;20659;-77
2023/03/15 00:40:20;;;;;;;9.57;5.30;;;24.90;99.90;;;;;;5082654;28;20195;-75
2023/03/15 00:42:51;;;;;;;8.70;5.07;;;25.00;99.90;;;;;;5070552;28;20226;-75
2023/03/15 00:45:26;;;;;;;7.78;5.18;;;25.00;99.90;;;;;;5075017;28;20195;-76
2023/03/15 00:47:57;;;;;;;7.93;5.13;;;25.00;99.90;;;;;;5074029;28;20204;-76
2023/03/15 00:50:29;;;;;;;7.63;4.53;;;25.20;99.90;;;;;;5071140;28;20219;-77
2023/03/15 00:53:00;;;;;;;7.15;4.50;;;25.30;99.90;;;;;;5074073;28;20199;-77
2023/03/15 00:55:31;;;;;;;8.32;4.85;;;25.40;99.90;;;;;;5073560;28;20198;-77
2023/03/15 00:58:02;;;;;;;9.10;5.10;;;25.50;99.90;;;;;;5073679;28;20196;-77
2023/03/15 01:00:37;;;;;;;8.63;4.40;;;25.50;99.90;;;;;;5088976;28;20190;-77
2023/03/15 01:03:08;;;;;;;7.43;4.60;;;25.50;99.90;;;;;;5073609;28;20222;-77
2023/03/15 01:05:40;;;;;;;6.10;3.83;;;25.60;99.90;;;;;;5074520;28;20203;-78
2023/03/15 01:08:11;;;;;;;7.45;4.50;;;25.70;99.90;;;;;;5073519;28;21599;-77
2023/03/15 01:10:42;;;;;;;9.95;5.05;;;25.80;99.90;;;;;;5075034;28;20195;-77
2023/03/15 01:13:13;;;;;;;8.68;5.00;;;25.70;99.90;;;;;;5076079;28;20206;-78
2023/03/15 01:15:48;;;;;;;6.57;4.40;;;25.80;99.90;;;;;;5080404;27;20199;-77
2023/03/15 01:18:19;;;;;;;9.68;4.45;;;25.80;99.90;;;;;;5077282;28;20210;-76
2023/03/15 01:20:50;;;;;;;6.50;3.90;;;25.90;99.90;;;;;;5074998;28;20842;-77
2023/03/15 01:23:22;;;;;;;8.30;3.90;;;25.90;99.90;;;;;;5072905;28;20211;-77
2023/03/15 01:25:53;;;;;;;10.80;4.45;;;26.00;99.90;;;;;;5074935;28;20348;-76
2023/03/15 01:28:24;;;;;;;6.10;4.15;;;26.10;99.90;;;;;;5074061;28;20293;-77
2023/03/15 01:30:58;;;;;;;9.68;4.78;;;26.10;99.90;;;;;;5074723;28;20776;-77
2023/03/15 01:33:31;;;;;;;7.10;4.53;;;26.20;99.90;;;;;;5076481;28;20207;-76
2023/03/15 01:36:04;;;;;;;7.70;4.65;;;26.20;99.90;;;;;;5083092;28;20279;-76
2023/03/15 01:38:36;;;;;;;7.65;4.40;;;26.30;99.90;;;;;;5085561;28;20215;-74
2023/03/15 01:41:11;;;;;;;5.43;3.92;;;26.40;99.90;;;;;;5077505;28;20563;-77
2023/03/15 01:43:45;;;;;;;7.35;4.60;;;26.40;99.90;;;;;;5077860;28;20308;-76
2023/03/15 01:46:28;;;;;;;8.25;4.32;;;26.50;99.90;;;;;;5077743;28;20224;-77
2023/03/15 01:49:04;;;;;;;8.73;4.28;;;26.60;99.90;;;;;;5079139;28;20209;-77
2023/03/15 01:51:40;;;;;;;7.15;4.20;;;26.70;99.90;;;;;;5077103;28;20202;-77
2023/03/15 01:54:16;;;;;;;5.18;3.83;;;26.70;99.90;;;;;;5077608;28;20207;-76
2023/03/15 01:56:53;;;;;;;9.10;3.95;;;26.70;99.90;;;;;;5076492;28;20201;-76
2023/03/15 01:59:28;;;;;;;9.63;4.43;;;26.80;99.90;;;;;;5076317;28;20286;-76
2023/03/15 02:02:03;;;;;;;7.65;4.35;;;26.90;99.90;;;;;;5076457;28;20191;-75
2023/03/15 02:04:36;;;;;;;8.05;4.10;;;26.90;99.90;;;;;;5077985;28;20227;-76
2023/03/15 02:07:10;;;;;;;6.40;3.90;;;26.90;99.90;;;;;;5077033;28;22983;-75
2023/03/15 02:09:52;;;;;;;7.80;4.40;;;26.90;99.90;;;;;;5076968;28;20601;-76
2023/03/15 02:12:26;;;;;;;5.40;4.07;;;27.00;99.90;;;;;;5077437;28;20853;-76
2023/03/15 02:15:01;;;;;;;5.93;3.90;;;27.00;99.90;;;;;;5076365;28;20286;-77
2023/03/15 02:17:39;;;;;;;9.57;4.00;;;27.10;99.90;;;;;;5081131;28;20190;-76
2023/03/15 02:20:26;;;;;;;6.57;4.30;;;27.30;99.90;;;;;;5080209;28;20285;-76
2023/03/15 02:23:00;;;;;;;7.10;3.80;;;27.20;99.90;;;;;;5076923;28;20219;-75
2023/03/15 02:25:40;;;;;;;7.18;3.95;;;27.20;99.90;;;;;;5077678;28;20247;-76
2023/03/15 02:28:16;;;;;;;7.00;4.00;;;27.40;99.90;;;;;;5077927;28;20612;-76
2023/03/15 02:30:48;;;;;;;7.65;4.03;;;27.60;99.90;;;;;;5075627;28;20199;-75
2023/03/15 02:33:24;;;;;;;6.95;4.35;;;27.70;99.90;;;;;;5082839;28;20206;-76
2023/03/15 02:35:58;;;;;;;10.38;4.57;;;27.70;99.90;;;;;;5089197;28;20205;-76
2023/03/15 02:38:29;;;;;;;7.07;4.32;;;27.80;99.90;;;;;;5080198;28;20258;-76
2023/03/15 02:41:00;;;;;;;5.68;4.00;;;27.80;99.90;;;;;;5081657;28;20214;-76
2023/03/15 02:43:34;;;;;;;5.60;3.95;;;27.90;99.90;;;;;;5074070;28;20234;-77
2023/03/15 02:46:07;;;;;;;8.55;4.18;;;27.90;99.90;;;;;;5079336;28;20206;-77
2023/03/15 02:48:39;;;;;;;9.40;4.22;;;28.00;99.90;;;;;;5086700;28;20195;-77
2023/03/15 02:51:20;;;;;;;11.55;4.28;;;28.10;99.90;;;;;;5079507;28;20196;-76
2023/03/15 02:53:51;;;;;;;10.45;3.78;;;28.30;99.90;;;;;;5077317;28;20191;-76
2023/03/15 02:56:23;;;;;;;10.30;3.85;;;28.30;99.90;;;;;;5082661;28;20671;-76
2023/03/15 02:58:57;;;;;;;11.00;3.95;;;28.30;99.90;;;;;;5080901;28;20199;-75
2023/03/15 03:01:30;;;;;;;11.90;4.50;;;28.20;99.90;;;;;;5080961;28;20233;-77
2023/03/15 03:04:01;;;;;;;12.35;4.20;;;28.10;99.90;;;;;;5078838;28;20214;-77
2023/03/15 03:06:32;;;;;;;12.43;3.88;;;28.00;99.90;;;;;;5075951;28;20581;-76
2023/03/15 03:09:06;;;;;;;11.93;4.32;;;28.00;99.90;;;;;;5078687;28;20677;-77
2023/03/15 03:11:37;;;;;;;14.05;3.95;;;28.10;99.90;;;;;;5074859;28;20202;-78
2023/03/15 03:14:12;;;;;;;11.65;4.30;;;28.10;99.90;;;;;;5077631;28;20202;-76
2023/03/15 03:16:48;;;;;;;10.20;4.30;;;28.00;99.90;;;;;;5084701;28;20202;-76
2023/03/15 03:19:19;;;;;;;8.63;3.88;;;28.10;99.90;;;;;;5080337;28;21923;-76
2023/03/15 03:21:52;;;;;;;13.48;4.43;;;28.00;99.90;;;;;;5076186;28;20206;-77
2023/03/15 03:24:24;;;;;;;10.82;4.47;;;28.10;99.90;;;;;;5081180;28;20236;-75
2023/03/15 03:26:58;;;;;;;10.23;3.88;;;28.20;99.90;;;;;;5090371;28;20202;-78
2023/03/15 03:29:31;;;;;;;12.93;4.45;;;28.10;99.90;;;;;;5098778;28;20223;-76
2023/03/15 03:32:02;;;;;;;11.65;4.03;;;28.20;99.90;;;;;;5111529;28;20543;-77
2023/03/15 03:34:33;;;;;;;11.98;3.95;;;28.20;99.90;;;;;;5108112;27;20286;-77
2023/03/15 03:37:04;;;;;;;10.75;3.80;;;28.20;99.90;;;;;;5099682;28;20211;-77
2023/03/15 03:39:37;;;;;;;10.35;3.92;;;28.20;99.90;;;;;;5102519;28;20199;-76
2023/03/15 03:42:09;;;;;;;7.60;3.72;;;28.20;99.90;;;;;;5093477;28;20588;-77
2023/03/15 03:44:42;;;;;;;9.52;4.32;;;28.20;99.90;;;;;;5105038;28;20220;-80
2023/03/15 03:47:16;;;;;;;10.93;3.92;;;28.20;99.90;;;;;;5113208;28;20194;-79
2023/03/15 03:49:47;;;;;;;9.38;4.18;;;28.20;99.90;;;;;;5104627;28;20191;-77
2023/03/15 03:52:18;;;;;;;9.30;4.32;;;28.20;99.90;;;;;;5101615;28;20198;-78
2023/03/15 03:54:50;;;;;;;11.73;4.80;;;28.10;99.90;;;;;;5097518;28;20625;-78
2023/03/15 03:57:21;;;;;;;11.13;4.50;;;28.00;99.90;;;;;;5098454;28;20543;-78
2023/03/15 03:59:55;;;;;;;9.68;4.57;;;28.00;99.90;;;;;;5104853;28;20198;-78
2023/03/15 04:02:26;;;;;;;9.40;4.78;;;28.00;99.90;;;;;;5099774;28;20246;-77
2023/03/15 04:04:58;;;;;;;12.75;4.75;;;28.00;99.90;;;;;;5108755;28;20218;-77
2023/03/15 04:07:30;;;;;;;9.45;4.50;;;28.00;99.90;;;;;;5105252;28;20191;-76
2023/03/15 04:10:01;;;;;;;8.88;4.20;;;28.00;99.90;;;;;;5109926;28;20191;-78
2023/03/15 04:12:32;;;;;;;9.95;4.22;;;28.10;99.90;;;;;;5106889;28;20241;-78
2023/03/15 04:15:05;;;;;;;8.45;4.45;;;28.10;99.90;;;;;;5097108;28;20210;-77
2023/03/15 04:17:36;;;;;;;11.73;5.20;;;28.10;99.90;;;;;;5105309;28;20195;-77
2023/03/15 04:20:10;;;;;;;11.60;4.88;;;28.00;99.90;;;;;;5100119;28;20657;-77
2023/03/15 04:22:48;;;;;;;12.57;4.75;;;27.90;99.90;;;;;;5106088;28;20183;-78
2023/03/15 04:25:21;;;;;;;13.18;4.63;;;27.90;99.90;;;;;;5096546;28;20230;-78
2023/03/15 04:27:57;;;;;;;8.02;4.43;;;27.80;99.90;;;;;;5107178;28;20301;-77
2023/03/15 04:30:41;;;;;;;9.57;4.40;;;27.80;99.90;;;;;;5107877;28;20664;-78
2023/03/15 04:33:13;;;;;;;9.75;4.75;;;27.90;99.90;;;;;;5110690;28;20665;-77
2023/03/15 04:35:44;;;;;;;13.32;4.70;;;27.90;99.90;;;;;;5103909;28;20194;-79
2023/03/15 04:38:15;;;;;;;9.55;5.13;;;27.90;99.90;;;;;;5115803;28;20236;-76
2023/03/15 04:40:46;;;;;;;11.02;5.18;;;28.00;99.90;;;;;;5104205;28;20195;-78
2023/03/15 04:43:18;;;;;;;10.50;4.82;;;27.90;99.90;;;;;;5105957;28;20190;-77
2023/03/15 04:45:54;;;;;;;6.43;4.47;;;28.00;99.90;;;;;;5101779;28;20274;-78
2023/03/15 04:48:25;;;;;;;7.30;4.78;;;28.00;99.90;;;;;;5116079;28;20267;-78
2023/03/15 04:50:56;;;;;;;10.02;5.20;;;28.10;99.90;;;;;;5103412;28;20198;-77
2023/03/15 04:53:28;;;;;;;9.73;4.80;;;28.20;99.90;;;;;;5115598;28;20281;-78
2023/03/15 04:55:59;;;;;;;8.75;4.28;;;28.10;99.90;;;;;;5115479;28;20190;-76
2023/03/15 04:58:34;;;;;;;9.40;4.50;;;28.00;99.90;;;;;;5117757;28;20207;-77
2023/03/15 05:01:07;;;;;;;8.18;4.55;;;27.90;99.90;;;;;;5115903;28;20323;-76
2023/03/15 05:03:38;;;;;;;11.63;4.80;;;27.80;99.90;;;;;;5109019;27;20676;-78
2023/03/15 05:06:09;;;;;;;9.98;5.18;;;27.80;99.90;;;;;;5098713;28;20203;-78
2023/03/15 05:08:44;;;;;;;8.52;4.78;;;27.80;99.90;;;;;;5104038;28;20188;-78
2023/03/15 05:11:15;;;;;;;12.38;5.55;;;27.70;99.90;;;;;;5113655;28;20203;-78
2023/03/15 05:13:46;;;;;;;11.18;5.40;;;27.70;99.90;;;;;;5101113;28;20555;-78
2023/03/15 05:16:19;;;;;;;9.35;5.15;;;27.70;99.90;;;;;;5106111;27;20250;-79
2023/03/15 05:18:50;;;;;;;11.55;5.80;;;27.70;99.90;;;;;;5114538;28;20194;-78
2023/03/15 05:21:21;;;;;;;8.60;4.88;;;27.70;99.90;;;;;;5109012;28;20288;-78
2023/03/15 05:23:52;;;;;;;8.82;5.10;;;27.70;99.90;;;;;;5111394;28;20696;-78
2023/03/15 05:26:23;;;;;;;10.82;5.28;;;27.60;99.90;;;;;;5109493;28;20191;-78
2023/03/15 05:28:55;;;;;;;9.60;5.63;;;27.70;99.90;;;;;;5107351;28;20219;-78
2023/03/15 05:31:28;;;;;;;13.00;5.88;;;27.60;99.90;;;;;;5104856;28;20195;-77
2023/03/15 05:33:59;;;;;;;10.45;5.28;;;27.60;99.90;;;;;;5107484;28;20191;-77
2023/03/15 05:36:31;;;;;;;11.00;5.63;;;27.60;99.90;;;;;;5102563;28;20206;-77
2023/03/15 05:39:03;;;;;;;9.57;5.28;;;27.70;99.90;;;;;;5113203;28;20653;-78
2023/03/15 05:41:35;;;;;;;10.05;5.40;;;27.70;99.90;;;;;;5105849;28;20199;-78
2023/03/15 05:44:06;;;;;;;12.07;5.75;;;27.80;99.90;;;;;;5091594;28;20219;-77
2023/03/15 05:46:39;;;;;;;11.07;5.38;;;27.80;99.90;;;;;;5097218;28;20191;-77
2023/03/15 05:49:10;;;;;;;13.32;5.82;;;27.80;99.90;;;;;;5109634;28;20217;-77
2023/03/15 05:51:41;;;;;;;9.48;5.47;;;27.80;99.90;;;;;;5104107;28;20187;-78
2023/03/15 05:54:12;;;;;;;10.93;5.40;;;27.80;99.90;;;;;;5112344;28;20676;-77
2023/03/15 05:56:43;;;;;;;10.32;5.15;;;27.90;99.90;;;;;;5111978;28;20194;-77
2023/03/15 05:59:14;;;;;;;9.43;5.13;;;27.90;99.90;;;;;;5112400;28;20260;-77
2023/03/15 06:01:47;;;;;;;9.65;5.22;;;28.00;99.90;;;;;;5107003;28;20194;-76
2023/03/15 06:04:18;;;;;;;9.07;4.85;;;28.20;99.90;;;;;;5105552;28;20222;-77
2023/03/15 06:06:53;;;;;;;12.68;6.45;;;28.10;99.90;;;;;;5110321;28;20195;-79
2023/03/15 06:09:24;;;;;;;12.15;5.93;;;28.10;99.90;;;;;;5100257;28;20197;-76
2023/03/15 06:11:55;;;;;;;10.00;5.50;;;28.20;99.90;;;;;;5103879;28;20665;-77
2023/03/15 06:14:26;;;;;;;11.35;5.63;;;28.40;99.90;;;;;;5104461;28;20190;-77
2023/03/15 06:17:00;;;;;;;8.02;5.25;;;28.40;99.90;;;;;;5099688;28;20593;-76
2023/03/15 06:19:31;;;;;;;11.52;5.57;;;28.60;99.90;;;;;;5110346;28;20194;-76
2023/03/15 06:22:02;;;;;;;9.52;5.47;;;28.60;99.90;;;;;;5110547;28;20197;-76
2023/03/15 06:24:33;;;;;;;10.38;5.72;;;28.70;99.90;;;;;;5109208;28;20596;-76
2023/03/15 06:27:04;;;;;;;13.45;5.95;;;28.90;99.90;;;;;;5111872;28;20657;-76
2023/03/15 06:29:36;;;;;;;9.45;5.50;;;28.90;99.90;;;;;;5008068;28;2690914;-75
2023/03/15 06:32:10;;;;;;;13.18;5.57;;;29.10;99.90;;;;;;5112535;28;20222;-75
2023/03/15 06:34:41;;;;;;;11.75;5.82;;;29.20;99.90;;;;;;5107104;28;20657;-75
2023/03/15 06:37:15;;;;;;;10.50;5.43;;;29.50;99.90;;;;;;5112799;28;20561;-74
2023/03/15 06:39:46;;;;;;;12.40;5.30;;;29.60;99.90;;;;;;5105929;28;20191;-76
2023/03/15 06:42:18;;;;;;;8.27;5.05;;;29.80;99.90;;;;;;5113022;28;20191;-76
2023/03/15 06:44:49;;;;;;;10.07;5.28;;;30.10;99.90;;;;;;5112726;28;20581;-76
2023/03/15 06:47:22;;;;;;;10.80;5.43;;;30.30;99.90;;;;;;5110667;28;20683;-76
2023/03/15 06:49:53;;;;;;;8.38;5.05;;;30.30;99.90;;;;;;5112114;28;20198;-77
2023/03/15 06:52:25;;;;;;;7.82;4.90;;;30.50;99.90;;;;;;5112093;28;20669;-77
2023/03/15 06:54:56;;;;;;;7.80;5.13;;;30.80;99.90;;;;;;5111318;28;20213;-77
2023/03/15 06:57:27;;;;;;;7.35;4.93;;;30.90;99.90;;;;;;5112654;28;20535;-76
2023/03/15 06:59:59;;;;;;;8.27;4.80;;;31.00;99.90;;;;;;5112502;28;20259;-77
2023/03/15 07:02:36;;;;;;;10.35;5.30;;;31.00;99.90;;;;;;5112829;28;20226;-77
2023/03/15 07:05:07;;;;;;;5.97;4.75;;;31.00;99.90;;;;;;5104111;28;20233;-78
2023/03/15 07:07:38;;;;;;;9.30;4.50;;;30.70;99.90;;;;;;5108948;28;20190;-78
2023/03/15 07:10:10;;;;;;;6.28;4.18;;;30.70;99.90;;;;;;5109952;27;20201;-77
2023/03/15 07:12:41;;;;;;;7.60;4.68;;;30.70;99.90;;;;;;5112023;28;20202;-77
2023/03/15 07:15:15;;;;;;;6.10;4.35;;;30.90;99.90;;;;;;5104047;28;20194;-77
2023/03/15 07:17:48;;;;;;;7.80;4.47;;;30.80;99.90;;;;;;5111591;28;20190;-77
2023/03/15 07:20:19;;;;;;;5.72;4.55;;;30.80;99.90;;;;;;5102141;28;20580;-77
2023/03/15 07:22:50;;;;;;;7.05;4.60;;;30.70;99.90;;;;;;5108009;28;20187;-76
2023/03/15 07:25:22;;;;;;;7.95;4.88;;;30.50;99.90;;;;;;5107149;28;20647;-79
2023/03/15 07:27:54;;;;;;;8.00;4.90;;;30.30;99.90;;;;;;5111331;28;20186;-78
2023/03/15 07:30:26;;;;;;;7.07;4.43;;;30.20;99.90;;;;;;5103335;28;20191;-78
2023/03/15 07:32:59;;;;;;;9.70;4.80;;;29.90;99.90;;;;;;5112442;28;20183;-77
2023/03/15 07:35:30;;;;;;;7.90;4.63;;;29.70;99.90;;;;;;5103804;28;20695;-77
2023/03/15 07:38:02;;;;;;;8.63;4.78;;;29.40;99.90;;;;;;5110120;28;20600;-77
2023/03/15 07:40:33;;;;;;;7.68;4.90;;;29.30;99.90;;;;;;5108913;28;20194;-77
2023/03/15 07:43:05;;;;;;;7.72;4.72;;;29.10;99.90;;;;;;5106807;28;20182;-77
2023/03/15 07:45:36;;;;;;;8.32;4.55;;;28.90;99.90;;;;;;5111471;28;20210;-78
2023/03/15 07:48:09;;;;;;;8.63;5.00;;;28.60;99.90;;;;;;5111534;28;20562;-77
2023/03/15 07:50:41;;;;;;;6.55;4.95;;;28.40;99.90;;;;;;5111130;28;20224;-77
2023/03/15 07:53:12;;;;;;;6.07;4.55;;;28.10;99.90;;;;;;5108370;28;20194;-77
2023/03/15 07:55:44;;;;;;;7.30;4.60;;;27.90;99.90;;;;;;5110045;28;20202;-76
2023/03/15 07:58:15;;;;;;;8.80;5.03;;;27.70;99.90;;;;;;5109303;28;20580;-78
2023/03/15 08:00:46;;;;;;;7.70;5.47;;;27.50;99.90;;;;;;5109677;28;20680;-77
2023/03/15 08:03:19;;;;;;;9.68;5.13;;;27.30;99.90;;;;;;5111228;28;20190;-76
2023/03/15 08:05:50;;;;;;;8.07;5.18;;;27.20;99.90;;;;;;5110958;28;20584;-79
2023/03/15 08:08:22;;;;;;;7.07;5.13;;;27.00;99.90;;;;;;5111394;28;20659;-78
2023/03/15 08:10:54;;;;;;;9.63;5.60;;;26.90;99.90;;;;;;5106877;28;20194;-77
2023/03/15 08:13:25;;;;;;;8.68;5.10;;;26.80;99.90;;;;;;5111133;28;20199;-77
2023/03/15 08:15:57;;;;;;;9.52;5.70;;;26.70;99.90;;;;;;5106817;28;20677;-77
2023/03/15 08:18:30;;;;;;;8.95;5.47;;;26.60;99.90;;;;;;5111465;28;20186;-77
2023/03/15 08:21:01;;;;;;;10.07;5.78;;;26.60;99.90;;;;;;5111523;28;20270;-77
2023/03/15 08:23:34;;;;;;;9.93;5.45;;;26.40;99.90;;;;;;5110786;28;20543;-77
2023/03/15 08:26:05;;;;;;;11.93;6.10;;;26.40;99.90;;;;;;5110471;28;20211;-76
2023/03/15 08:28:36;;;;;;;8.88;5.65;;;26.30;99.90;;;;;;5106520;28;20604;-77
2023/03/15 08:31:12;;;;;;;7.93;5.53;;;26.20;99.90;;;;;;5107716;28;20199;-76
2023/03/15 08:33:45;;;;;;;10.05;5.53;;;26.20;99.90;;;;;;5110182;28;20273;-76
2023/03/15 08:36:17;;;;;;;10.10;5.78;;;26.10;99.90;;;;;;5105030;28;20655;-77
2023/03/15 08:38:48;;;;;;;9.27;5.60;;;26.10;99.90;;;;;;5111726;28;20187;-76
2023/03/15 08:41:19;;;;;;;12.10;5.93;;;25.90;99.90;;;;;;5110765;28;20557;-77
2023/03/15 08:43:53;;;;;;;10.75;5.95;;;25.90;99.90;;;;;;5110183;28;20625;-77
2023/03/15 08:46:24;;;;;;;11.80;6.40;;;25.80;99.90;;;;;;5104911;28;20226;-76
2023/03/15 08:48:57;;;;;;;11.82;6.88;;;25.80;99.90;;;;;;5109229;28;20191;-77
2023/03/15 08:51:29;;;;;;;10.98;6.45;;;25.80;99.90;;;;;;5111116;28;20551;-76
2023/03/15 08:54:02;;;;;;;9.32;6.18;;;25.80;99.90;;;;;;5110694;28;20187;-77
2023/03/15 08:56:33;;;;;;;10.45;6.70;;;25.80;99.90;;;;;;5110057;28;20237;-77
2023/03/15 08:59:04;;;;;;;11.05;6.57;;;25.80;99.90;;;;;;5110183;28;20560;-77
2023/03/15 09:01:35;;;;;;;10.90;6.85;;;25.70;99.90;;;;;;5109956;28;20195;-77
2023/03/15 09:04:08;;;;;;;11.38;7.00;;;25.60;99.90;;;;;;5101598;28;20209;-76
2023/03/15 09:06:41;;;;;;;9.95;6.78;;;25.50;99.90;;;;;;5106736;28;20218;-77
2023/03/15 09:09:16;;;;;;;10.70;6.88;;;25.50;99.90;;;;;;5102407;28;20202;-77
2023/03/15 09:11:47;;;;;;;10.43;6.65;;;25.50;99.90;;;;;;5107234;28;20247;-77
2023/03/15 09:14:18;;;;;;;11.18;6.63;;;25.50;99.90;;;;;;5102413;28;20187;-77
2023/03/15 09:16:49;;;;;;;11.07;6.45;;;25.50;99.90;;;;;;5110050;28;20190;-76
2023/03/15 09:19:25;;;;;;;12.90;6.68;;;25.40;99.90;;;;;;5102912;28;20218;-77
2023/03/15 09:21:56;;;;;;;12.25;6.93;;;25.40;99.90;;;;;;5113886;28;20273;-76
2023/03/15 09:24:27;;;;;;;9.40;6.22;;;25.40;99.90;;;;;;5106109;28;20201;-76
2023/03/15 09:26:58;;;;;;;12.32;7.47;;;25.40;99.90;;;;;;5113965;28;20711;-76
2023/03/15 09:29:30;;;;;;;11.32;6.90;;;25.40;99.90;;;;;;5105540;28;20292;-76
2023/03/15 09:32:01;;;;;;;11.90;6.95;;;25.40;99.90;;;;;;5114056;28;20198;-76
2023/03/15 09:34:35;;;;;;;12.00;7.35;;;25.30;99.90;;;;;;5113572;28;20248;-77
2023/03/15 09:37:06;;;;;;;10.65;6.47;;;25.40;99.90;;;;;;5108903;28;20206;-76
2023/03/15 09:39:37;;;;;;;14.00;6.88;;;25.40;99.90;;;;;;5110931;28;20202;-76
2023/03/15 09:42:16;;;;;;;8.73;6.32;;;25.30;99.90;;;;;;5109208;28;20654;-77
2023/03/15 09:44:57;;;;;;;14.00;7.03;;;25.20;99.90;;;;;;5113244;28;20193;-76
2023/03/15 09:47:41;;;;;;;11.07;7.07;;;25.20;99.90;;;;;;5113595;27;20194;-77
2023/03/15 09:50:22;;;;;;;13.20;7.18;;;25.20;99.90;;;;;;5113226;28;20191;-76
2023/03/15 09:52:57;;;;;;;9.23;6.70;;;25.10;99.90;;;;;;5101409;28;20195;-77
2023/03/15 09:55:30;;;;;;;11.55;6.63;;;25.10;99.90;;;;;;5102593;28;20202;-77
2023/03/15 09:58:03;;;;;;;12.82;6.43;;;25.10;99.90;;;;;;5108250;28;20665;-77
2023/03/15 10:00:40;;;;;;;10.50;7.05;;;25.10;99.90;;;;;;5112903;28;20201;-75
2023/03/15 10:03:20;;;;;;;14.43;7.00;;;25.00;99.90;;;;;;5101932;28;20653;-77
2023/03/15 10:05:58;;;;;;;10.35;6.30;;;25.10;99.90;;;;;;5104460;28;20222;-76
2023/03/15 10:08:29;;;;;;;11.30;6.63;;;25.10;99.90;;;;;;5110266;28;20198;-76
2023/03/15 10:11:10;;;;;;;12.75;7.03;;;25.00;99.90;;;;;;5109661;28;20562;-76
2023/03/15 10:14:00;;;;;;;15.00;7.75;;;25.00;99.90;;;;;;5109002;28;20206;-76
2023/03/15 10:16:41;;;;;;;10.20;7.28;;;25.00;99.90;;;;;;5106979;28;20199;-79
2023/03/15 10:19:27;;;;;;;14.50;7.55;;;25.00;99.90;;;;;;5113537;28;20190;-77
2023/03/15 10:22:03;;;;;;;12.07;7.10;;;25.00;99.90;;;;;;5106041;28;20199;-77
2023/03/15 10:24:41;;;;;;;12.68;6.80;;;24.90;99.90;;;;;;5098456;28;20202;-76
2023/03/15 10:27:20;;;;;;;15.00;6.78;;;24.90;99.90;;;;;;5101602;28;20222;-76
2023/03/15 10:29:54;;;;;;;12.68;7.13;;;24.90;99.90;;;;;;5100080;28;20771;-76
2023/03/15 10:32:29;;;;;;;13.30;7.10;;;24.90;99.90;;;;;;5098845;28;20206;-76
2023/03/15 10:35:03;;;;;;;16.38;7.10;;;24.90;99.90;;;;;;5105861;28;20356;-77
2023/03/15 10:37:36;;;;;;;10.98;7.13;;;24.90;99.90;;;;;;5101681;28;20637;-77
2023/03/15 10:40:12;;;;;;;13.15;6.93;;;24.90;99.90;;;;;;5103132;28;20206;-77
2023/03/15 10:42:46;;;;;;;12.55;7.43;;;24.90;99.90;;;;;;5109596;28;20201;-77
2023/03/15 10:45:23;;;;;;;14.13;6.88;;;24.80;99.90;;;;;;5107031;28;20714;-77
2023/03/15 10:47:56;;;;;;;13.80;7.40;;;24.80;99.90;;;;;;5097273;28;20191;-77
2023/03/15 10:50:30;;;;;;;15.80;7.45;;;24.80;99.90;;;;;;5102541;28;20205;-77
2023/03/15 10:53:10;;;;;;;11.35;7.35;;;24.70;99.90;;;;;;5107429;28;20259;-76
2023/03/15 10:55:46;;;;;;;13.63;7.32;;;24.70;99.90;;;;;;5113543;27;20206;-77
2023/03/15 10:58:26;;;;;;;18.65;7.45;;;24.70;99.90;;;;;;5121597;28;20203;-77
2023/03/15 11:01:02;;;;;;;13.57;7.25;;;24.70;99.90;;;;;;5126167;28;20252;-76
2023/03/15 11:03:33;;;;;;;15.18;7.38;;;24.70;99.90;;;;;;5111437;28;20194;-77
2023/03/15 11:06:05;;;;;;;15.15;7.25;;;24.70;99.90;;;;;;5114164;28;20211;-77
2023/03/15 11:08:45;;;;;;;14.95;6.93;;;24.70;99.90;;;;;;5111927;28;20202;-76
2023/03/15 11:11:20;;;;;;;13.13;6.68;;;24.70;99.90;;;;;;5104843;28;20258;-77
2023/03/15 11:14:03;;;;;;;13.52;7.43;;;24.70;99.90;;;;;;5115091;28;20182;-77
2023/03/15 11:16:39;;;;;;;12.38;6.57;;;24.60;99.90;;;;;;5107157;28;20220;-78
2023/03/15 11:19:17;;;;;;;9.30;6.22;;;24.60;99.90;;;;;;5117442;28;20203;-75
2023/03/15 11:21:52;;;;;;;11.25;6.85;;;24.60;99.90;;;;;;5100325;28;20219;-77
2023/03/15 11:24:28;;;;;;;14.55;6.53;;;24.50;99.90;;;;;;5106355;28;20234;-78
2023/03/15 11:27:02;;;;;;;11.90;6.45;;;24.50;99.90;;;;;;5116662;28;20249;-78
2023/03/15 11:29:37;;;;;;;11.43;6.90;;;24.50;99.90;;;;;;5112175;28;20279;-79
2023/03/15 11:32:17;;;;;;;9.50;6.43;;;24.50;99.90;;;;;;5105711;28;20194;-77
2023/03/15 11:34:55;;;;;;;13.25;6.82;;;24.50;99.90;;;;;;5111824;28;20625;-80
2023/03/15 11:37:30;;;;;;;10.88;7.15;;;24.40;99.90;;;;;;5114374;28;20217;-77
2023/03/15 11:40:12;;;;;;;11.77;6.70;;;24.50;99.90;;;;;;5108106;28;20198;-80
2023/03/15 11:42:50;;;;;;;13.65;6.95;;;24.50;99.90;;;;;;5115605;28;20704;-79
2023/03/15 11:45:25;;;;;;;11.23;6.50;;;24.50;99.90;;;;;;5110528;28;20227;-78
2023/03/15 11:47:59;;;;;;;10.90;6.82;;;24.40;99.90;;;;;;5103353;28;20223;-76
2023/03/15 11:50:31;;;;;;;12.07;6.80;;;24.40;99.90;;;;;;5104858;28;20194;-76
2023/03/15 11:53:07;;;;;;;10.13;7.03;;;24.50;99.90;;;;;;5109644;28;20730;-76
2023/03/15 11:55:41;;;;;;;11.52;7.20;;;24.40;99.90;;;;;;5106109;28;20190;-77
2023/03/15 11:58:30;;;;;;;9.60;6.93;;;24.40;99.90;;;;;;5104245;28;20704;-78
2023/03/15 12:01:05;;;;;;;12.82;6.93;;;24.40;99.90;;;;;;5116491;28;20195;-77
2023/03/15 12:03:42;;;;;;;11.18;7.13;;;24.40;99.90;;;;;;5101473;28;20214;-77
2023/03/15 12:06:40;;;;;;;9.68;6.30;;;24.30;99.90;;;;;;5108934;28;20194;-76
2023/03/15 12:09:41;;;;;;;11.00;6.93;;;24.20;99.90;;;;;;5114563;28;20667;-76
2023/03/15 12:12:52;;;;;;;12.77;7.40;;;24.20;99.90;;;;;;5106693;28;20195;-77
2023/03/15 12:15:48;;;;;;;10.13;6.45;;;24.10;99.90;;;;;;5072173;28;20191;-77
2023/03/15 12:18:32;;;;;;;12.95;7.22;;;24.20;99.90;;;;;;5107564;28;20195;-75
2023/03/15 12:21:21;;;;;;;12.00;6.68;;;24.20;99.90;;;;;;5103918;28;20195;-76
2023/03/15 12:24:00;;;;;;;12.80;7.43;;;24.20;99.90;;;;;;5105775;28;20224;-76
2023/03/15 12:26:43;;;;;;;12.20;7.05;;;24.10;99.90;;;;;;5106002;28;20705;-77
2023/03/15 12:29:28;;;;;;;10.02;7.43;;;24.10;99.90;;;;;;5109106;28;20593;-78
2023/03/15 12:32:10;;;;;;;9.63;6.50;;;24.10;99.90;;;;;;5104293;28;20269;-77
2023/03/15 12:34:48;;;;;;;9.38;6.35;;;24.10;99.90;;;;;;5110882;28;21001;-76
2023/03/15 12:37:26;;;;;;;12.02;7.22;;;24.10;99.90;;;;;;5105473;28;20196;-77
2023/03/15 12:40:23;;;;;;;12.30;7.40;;;24.00;99.90;;;;;;5103506;28;20676;-77
2023/03/15 12:43:04;;;;;;;13.77;7.07;;;24.00;99.90;;;;;;5095018;28;20568;-75
2023/03/15 12:45:48;;;;;;;11.45;6.95;;;24.00;99.90;;;;;;5106579;28;20212;-76
2023/03/15 12:48:29;;;;;;;12.40;7.03;;;24.00;99.90;;;;;;5097951;28;20672;-75
2023/03/15 12:51:37;;;;;;;12.43;7.35;;;24.00;99.90;;;;;;5096720;28;20213;-77
2023/03/15 12:54:13;;;;;;;12.30;7.03;;;24.00;99.90;;;;;;5104536;28;20205;-76
2023/03/15 12:56:54;;;;;;;10.43;6.93;;;24.00;99.90;;;;;;5106599;28;20199;-76
2023/03/15 12:59:37;;;;;;;11.75;7.15;;;23.90;99.90;;;;;;5113061;28;20226;-77
2023/03/15 13:02:24;;;;;;;11.25;7.45;;;23.90;99.90;;;;;;5112358;28;20660;-77
2023/03/15 13:05:06;;;;;;;10.50;7.47;;;23.80;99.90;;;;;;5112701;28;20190;-77
2023/03/15 13:07:54;;;;;;;14.20;7.13;;;23.80;99.90;;;;;;5112527;28;20229;-77
2023/03/15 13:10:55;;;;;;;12.95;7.78;;;23.80;99.90;;;;;;5110054;28;20175;-77
2023/03/15 13:13:47;;;;;;;11.73;6.85;;;23.80;99.90;;;;;;5114214;28;20183;-76
2023/03/15 13:16:31;;;;;;;13.75;7.53;;;23.80;99.90;;;;;;5117538;27;20213;-77
2023/03/15 13:19:09;;;;;;;10.18;6.65;;;23.80;99.90;;;;;;5116221;28;20201;-79